sensor_id;sensor_type;location;lat;lon;timestamp;pressure;altitude;pressure_sealevel;temperature;humidity
28701;BME280;15877;52.344;16.790;2023-05-08T00:00:45;101926.93;;;10.69;59.04
28701;BME280;15877;52.344;16.790;2023-05-08T00:03:20;101925.61;;;10.66;59.15
28701;BME280;15877;52.344;16.790;2023-05-08T00:05:53;101923.61;;;10.62;59.35
28701;BME280;15877;52.344;16.790;2023-05-08T00:08:26;101922.66;;;10.62;59.31
28701;BME280;15877;52.344;16.790;2023-05-08T00:10:59;101920.52;;;10.59;59.06
28701;BME280;15877;52.344;16.790;2023-05-08T00:13:31;101916.13;;;10.55;59.04
28701;BME280;15877;52.344;16.790;2023-05-08T00:16:04;101920.55;;;10.52;59.10
28701;BME280;15877;52.344;16.790;2023-05-08T00:18:39;101920.02;;;10.50;59.05
28701;BME280;15877;52.344;16.790;2023-05-08T00:21:11;101915.70;;;10.44;58.83
28701;BME280;15877;52.344;16.790;2023-05-08T00:23:43;101920.47;;;10.41;58.70
28701;BME280;15877;52.344;16.790;2023-05-08T00:26:16;101923.29;;;10.38;58.70
28701;BME280;15877;52.344;16.790;2023-05-08T00:28:49;101921.30;;;10.33;58.74
28701;BME280;15877;52.344;16.790;2023-05-08T00:31:21;101923.91;;;10.31;58.64
28701;BME280;15877;52.344;16.790;2023-05-08T00:33:54;101916.79;;;10.28;58.74
28701;BME280;15877;52.344;16.790;2023-05-08T00:36:26;101920.14;;;10.25;58.67
28701;BME280;15877;52.344;16.790;2023-05-08T00:38:59;101922.36;;;10.22;58.63
28701;BME280;15877;52.344;16.790;2023-05-08T00:41:32;101920.44;;;10.20;58.56
28701;BME280;15877;52.344;16.790;2023-05-08T00:44:05;101925.08;;;10.17;58.21
28701;BME280;15877;52.344;16.790;2023-05-08T00:46:37;101922.67;;;10.12;58.23
28701;BME280;15877;52.344;16.790;2023-05-08T00:49:11;101921.17;;;10.09;58.00
28701;BME280;15877;52.344;16.790;2023-05-08T00:51:45;101928.45;;;10.05;58.05
28701;BME280;15877;52.344;16.790;2023-05-08T00:54:19;101924.55;;;10.02;57.94
28701;BME280;15877;52.344;16.790;2023-05-08T00:56:53;101927.42;;;9.97;58.08
28701;BME280;15877;52.344;16.790;2023-05-08T00:59:26;101926.52;;;9.94;57.96
28701;BME280;15877;52.344;16.790;2023-05-08T01:01:58;101930.95;;;9.91;57.86
28701;BME280;15877;52.344;16.790;2023-05-08T01:04:32;101929.04;;;9.86;58.08
28701;BME280;15877;52.344;16.790;2023-05-08T01:07:05;101931.22;;;9.83;58.15
28701;BME280;15877;52.344;16.790;2023-05-08T01:09:37;101929.58;;;9.79;58.42
28701;BME280;15877;52.344;16.790;2023-05-08T01:12:16;101933.84;;;9.77;58.65
28701;BME280;15877;52.344;16.790;2023-05-08T01:14:59;101935.02;;;9.77;59.08
28701;BME280;15877;52.344;16.790;2023-05-08T01:17:45;101938.02;;;9.78;58.76
28701;BME280;15877;52.344;16.790;2023-05-08T01:20:33;101939.52;;;9.79;58.67
28701;BME280;15877;52.344;16.790;2023-05-08T01:23:48;101941.46;;;9.79;58.67
28701;BME280;15877;52.344;16.790;2023-05-08T01:27:04;101945.85;;;9.75;58.84
28701;BME280;15877;52.344;16.790;2023-05-08T01:30:06;101946.21;;;9.72;58.93
28701;BME280;15877;52.344;16.790;2023-05-08T01:32:45;101947.38;;;9.69;58.92
28701;BME280;15877;52.344;16.790;2023-05-08T01:35:23;101947.95;;;9.67;58.82
28701;BME280;15877;52.344;16.790;2023-05-08T01:38:05;101951.02;;;9.65;58.87
28701;BME280;15877;52.344;16.790;2023-05-08T01:40:46;101954.44;;;9.64;58.89
28701;BME280;15877;52.344;16.790;2023-05-08T01:43:29;101950.05;;;9.62;59.08
28701;BME280;15877;52.344;16.790;2023-05-08T01:46:08;101935.16;;;9.50;59.14
28701;BME280;15877;52.344;16.790;2023-05-08T01:48:48;101947.39;;;9.55;59.23
28701;BME280;15877;52.344;16.790;2023-05-08T01:51:23;101951.45;;;9.55;58.92
28701;BME280;15877;52.344;16.790;2023-05-08T01:53:59;101959.06;;;9.52;58.97
28701;BME280;15877;52.344;16.790;2023-05-08T01:56:35;101958.98;;;9.51;58.86
28701;BME280;15877;52.344;16.790;2023-05-08T01:59:10;101959.58;;;9.49;58.85
28701;BME280;15877;52.344;16.790;2023-05-08T02:01:47;101962.54;;;9.47;59.00
28701;BME280;15877;52.344;16.790;2023-05-08T02:04:20;101962.48;;;9.45;59.08
28701;BME280;15877;52.344;16.790;2023-05-08T02:06:54;101961.63;;;9.43;59.12
28701;BME280;15877;52.344;16.790;2023-05-08T02:09:29;101960.81;;;9.41;59.23
28701;BME280;15877;52.344;16.790;2023-05-08T02:12:03;101958.13;;;9.38;59.35
28701;BME280;15877;52.344;16.790;2023-05-08T02:14:38;101954.23;;;9.40;59.19
28701;BME280;15877;52.344;16.790;2023-05-08T02:17:14;101946.77;;;9.32;59.33
28701;BME280;15877;52.344;16.790;2023-05-08T02:19:48;101960.95;;;9.40;59.33
28701;BME280;15877;52.344;16.790;2023-05-08T02:22:22;101960.42;;;9.39;59.47
28701;BME280;15877;52.344;16.790;2023-05-08T02:24:56;101966.67;;;9.38;59.40
28701;BME280;15877;52.344;16.790;2023-05-08T02:27:29;101966.27;;;9.38;59.30
28701;BME280;15877;52.344;16.790;2023-05-08T02:30:03;101971.23;;;9.37;59.23
28701;BME280;15877;52.344;16.790;2023-05-08T02:32:36;101973.98;;;9.36;59.36
28701;BME280;15877;52.344;16.790;2023-05-08T02:35:11;101976.05;;;9.34;59.19
28701;BME280;15877;52.344;16.790;2023-05-08T02:37:47;101972.55;;;9.32;59.36
28701;BME280;15877;52.344;16.790;2023-05-08T02:40:23;101971.50;;;9.32;59.39
28701;BME280;15877;52.344;16.790;2023-05-08T02:42:57;101977.23;;;9.31;59.38
28701;BME280;15877;52.344;16.790;2023-05-08T02:45:35;101979.25;;;9.30;59.27
28701;BME280;15877;52.344;16.790;2023-05-08T02:48:13;101981.98;;;9.29;59.37
28701;BME280;15877;52.344;16.790;2023-05-08T02:50:56;101981.30;;;9.28;59.37
28701;BME280;15877;52.344;16.790;2023-05-08T02:53:35;101981.73;;;9.27;59.55
28701;BME280;15877;52.344;16.790;2023-05-08T02:56:12;101986.31;;;9.26;59.43
28701;BME280;15877;52.344;16.790;2023-05-08T02:58:56;101988.84;;;9.24;59.46
28701;BME280;15877;52.344;16.790;2023-05-08T03:01:35;101990.02;;;9.24;59.71
28701;BME280;15877;52.344;16.790;2023-05-08T03:04:11;101992.91;;;9.22;59.72
28701;BME280;15877;52.344;16.790;2023-05-08T03:06:47;101993.23;;;9.22;59.51
28701;BME280;15877;52.344;16.790;2023-05-08T03:09:22;101991.77;;;9.21;59.74
28701;BME280;15877;52.344;16.790;2023-05-08T03:12:02;101992.90;;;9.20;59.80
28701;BME280;15877;52.344;16.790;2023-05-08T03:14:40;101995.02;;;9.19;59.68
28701;BME280;15877;52.344;16.790;2023-05-08T03:17:16;101993.21;;;9.18;59.59
28701;BME280;15877;52.344;16.790;2023-05-08T03:19:54;101999.42;;;9.16;59.58
28701;BME280;15877;52.344;16.790;2023-05-08T03:22:28;101998.28;;;9.15;59.53
28701;BME280;15877;52.344;16.790;2023-05-08T03:25:03;102000.59;;;9.16;59.67
28701;BME280;15877;52.344;16.790;2023-05-08T03:27:38;101999.27;;;9.13;59.60
28701;BME280;15877;52.344;16.790;2023-05-08T03:30:12;101998.73;;;9.12;59.62
28701;BME280;15877;52.344;16.790;2023-05-08T03:32:48;101997.73;;;9.12;59.67
28701;BME280;15877;52.344;16.790;2023-05-08T03:35:21;101996.91;;;9.10;59.69
28701;BME280;15877;52.344;16.790;2023-05-08T03:37:54;101996.42;;;9.10;59.61
28701;BME280;15877;52.344;16.790;2023-05-08T03:40:28;102002.15;;;9.09;59.78
28701;BME280;15877;52.344;16.790;2023-05-08T03:43:01;102005.80;;;9.09;59.62
28701;BME280;15877;52.344;16.790;2023-05-08T03:45:38;102006.70;;;9.10;59.72
28701;BME280;15877;52.344;16.790;2023-05-08T03:48:12;102009.93;;;9.08;59.70
28701;BME280;15877;52.344;16.790;2023-05-08T03:50:46;102006.45;;;9.06;59.68
28701;BME280;15877;52.344;16.790;2023-05-08T03:53:19;102010.82;;;9.07;59.92
28701;BME280;15877;52.344;16.790;2023-05-08T03:55:52;102012.34;;;9.06;59.99
28701;BME280;15877;52.344;16.790;2023-05-08T03:58:30;102001.38;;;8.98;60.09
28701;BME280;15877;52.344;16.790;2023-05-08T04:01:10;102011.95;;;9.06;60.28
28701;BME280;15877;52.344;16.790;2023-05-08T04:03:55;102010.32;;;9.06;60.33
28701;BME280;15877;52.344;16.790;2023-05-08T04:06:33;102012.87;;;9.07;60.50
28701;BME280;15877;52.344;16.790;2023-05-08T04:09:25;102010.33;;;9.08;60.68
28701;BME280;15877;52.344;16.790;2023-05-08T04:12:04;102012.40;;;9.10;60.77
28701;BME280;15877;52.344;16.790;2023-05-08T04:14:44;102013.47;;;9.09;61.22
28701;BME280;15877;52.344;16.790;2023-05-08T04:17:31;102011.60;;;9.11;61.47
28701;BME280;15877;52.344;16.790;2023-05-08T04:20:08;102015.61;;;9.12;61.96
28701;BME280;15877;52.344;16.790;2023-05-08T04:22:43;102004.86;;;9.05;62.19
28701;BME280;15877;52.344;16.790;2023-05-08T04:25:18;102022.91;;;9.15;62.42
28701;BME280;15877;52.344;16.790;2023-05-08T04:27:52;102023.95;;;9.18;62.68
28701;BME280;15877;52.344;16.790;2023-05-08T04:30:26;102024.67;;;9.20;62.96
28701;BME280;15877;52.344;16.790;2023-05-08T04:33:03;102025.61;;;9.22;63.25
28701;BME280;15877;52.344;16.790;2023-05-08T04:35:36;102028.17;;;9.26;63.67
28701;BME280;15877;52.344;16.790;2023-05-08T04:38:08;102030.79;;;9.28;63.81
28701;BME280;15877;52.344;16.790;2023-05-08T04:40:41;102034.87;;;9.33;64.05
28701;BME280;15877;52.344;16.790;2023-05-08T04:43:13;102035.79;;;9.38;64.13
28701;BME280;15877;52.344;16.790;2023-05-08T04:45:46;102044.36;;;9.43;64.27
28701;BME280;15877;52.344;16.790;2023-05-08T04:48:19;102036.05;;;9.39;64.66
28701;BME280;15877;52.344;16.790;2023-05-08T04:50:52;102054.54;;;9.53;64.72
28701;BME280;15877;52.344;16.790;2023-05-08T04:53:24;102058.86;;;9.55;65.07
28701;BME280;15877;52.344;16.790;2023-05-08T04:55:57;102045.11;;;9.53;65.33
28701;BME280;15877;52.344;16.790;2023-05-08T04:58:32;102050.73;;;9.58;65.53
28701;BME280;15877;52.344;16.790;2023-05-08T05:01:05;102067.92;;;9.71;65.63
28701;BME280;15877;52.344;16.790;2023-05-08T05:03:37;102071.29;;;9.76;65.76
28701;BME280;15877;52.344;16.790;2023-05-08T05:06:10;102072.86;;;9.81;65.81
28701;BME280;15877;52.344;16.790;2023-05-08T05:08:43;102071.93;;;9.84;66.18
28701;BME280;15877;52.344;16.790;2023-05-08T05:11:16;102071.36;;;9.90;66.25
28701;BME280;15877;52.344;16.790;2023-05-08T05:13:48;102073.40;;;9.96;66.49
28701;BME280;15877;52.344;16.790;2023-05-08T05:16:21;102079.69;;;10.00;66.73
28701;BME280;15877;52.344;16.790;2023-05-08T05:18:53;102080.91;;;10.05;66.83
28701;BME280;15877;52.344;16.790;2023-05-08T05:21:26;102082.94;;;10.11;66.69
28701;BME280;15877;52.344;16.790;2023-05-08T05:24:00;102087.66;;;10.17;66.79
28701;BME280;15877;52.344;16.790;2023-05-08T05:26:32;102089.29;;;10.24;66.96
28701;BME280;15877;52.344;16.790;2023-05-08T05:29:06;102088.45;;;10.28;67.23
28701;BME280;15877;52.344;16.790;2023-05-08T05:31:39;102088.95;;;10.30;67.22
28701;BME280;15877;52.344;16.790;2023-05-08T05:34:13;102089.96;;;10.42;66.75
28701;BME280;15877;52.344;16.790;2023-05-08T05:36:46;102091.29;;;10.48;66.91
28701;BME280;15877;52.344;16.790;2023-05-08T05:39:19;102091.61;;;10.47;67.49
28701;BME280;15877;52.344;16.790;2023-05-08T05:41:52;102094.36;;;10.56;67.17
28701;BME280;15877;52.344;16.790;2023-05-08T05:44:25;102095.12;;;10.63;67.13
28701;BME280;15877;52.344;16.790;2023-05-08T05:46:58;102094.89;;;10.62;67.23
28701;BME280;15877;52.344;16.790;2023-05-08T05:49:31;102103.63;;;10.70;66.74
28701;BME280;15877;52.344;16.790;2023-05-08T05:52:05;102097.09;;;10.73;66.93
28701;BME280;15877;52.344;16.790;2023-05-08T05:54:41;102097.76;;;10.82;67.47
28701;BME280;15877;52.344;16.790;2023-05-08T05:57:14;102100.41;;;10.91;66.98
28701;BME280;15877;52.344;16.790;2023-05-08T05:59:57;102100.85;;;10.97;66.76
28701;BME280;15877;52.344;16.790;2023-05-08T06:02:31;102102.88;;;11.06;66.75
28701;BME280;15877;52.344;16.790;2023-05-08T06:05:05;102105.36;;;11.05;67.36
28701;BME280;15877;52.344;16.790;2023-05-08T06:07:37;102108.84;;;11.20;66.60
28701;BME280;15877;52.344;16.790;2023-05-08T06:10:11;102109.49;;;11.27;66.76
28701;BME280;15877;52.344;16.790;2023-05-08T06:12:43;102108.80;;;11.24;66.37
28701;BME280;15877;52.344;16.790;2023-05-08T06:15:16;102078.48;;;11.15;66.00
28701;BME280;15877;52.344;16.790;2023-05-08T06:17:49;102105.94;;;11.45;66.01
28701;BME280;15877;52.344;16.790;2023-05-08T06:20:23;102106.11;;;11.58;65.84
28701;BME280;15877;52.344;16.790;2023-05-08T06:22:56;102107.36;;;11.64;65.24
28701;BME280;15877;52.344;16.790;2023-05-08T06:25:29;102109.04;;;11.67;65.74
28701;BME280;15877;52.344;16.790;2023-05-08T06:28:02;102109.17;;;11.72;65.47
28701;BME280;15877;52.344;16.790;2023-05-08T06:30:36;102104.27;;;11.78;64.57
28701;BME280;15877;52.344;16.790;2023-05-08T06:33:09;102107.36;;;11.94;62.99
28701;BME280;15877;52.344;16.790;2023-05-08T06:35:46;102108.55;;;12.00;62.18
28701;BME280;15877;52.344;16.790;2023-05-08T06:38:18;102107.69;;;11.93;61.85
28701;BME280;15877;52.344;16.790;2023-05-08T06:40:50;102109.05;;;12.11;61.41
28701;BME280;15877;52.344;16.790;2023-05-08T06:43:24;102091.29;;;12.02;60.52
28701;BME280;15877;52.344;16.790;2023-05-08T06:45:56;102102.52;;;12.18;60.81
28701;BME280;15877;52.344;16.790;2023-05-08T06:48:28;102107.42;;;12.21;60.63
28701;BME280;15877;52.344;16.790;2023-05-08T06:51:01;102106.64;;;12.36;59.38
28701;BME280;15877;52.344;16.790;2023-05-08T06:53:34;102112.28;;;12.35;60.15
28701;BME280;15877;52.344;16.790;2023-05-08T06:56:08;102109.80;;;12.31;58.84
28701;BME280;15877;52.344;16.790;2023-05-08T06:58:40;102108.64;;;12.53;57.72
28701;BME280;15877;52.344;16.790;2023-05-08T07:01:20;102113.16;;;12.60;57.91
28701;BME280;15877;52.344;16.790;2023-05-08T07:03:53;102113.56;;;12.68;59.19
28701;BME280;15877;52.344;16.790;2023-05-08T07:06:25;102116.94;;;12.75;59.46
28701;BME280;15877;52.344;16.790;2023-05-08T07:08:57;102119.84;;;12.82;59.22
28701;BME280;15877;52.344;16.790;2023-05-08T07:11:29;102119.44;;;12.90;57.26
28701;BME280;15877;52.344;16.790;2023-05-08T07:14:02;102122.20;;;12.91;58.02
28701;BME280;15877;52.344;16.790;2023-05-08T07:16:34;102129.64;;;12.90;56.65
28701;BME280;15877;52.344;16.790;2023-05-08T07:19:07;102127.91;;;13.06;55.18
28701;BME280;15877;52.344;16.790;2023-05-08T07:21:40;102126.98;;;12.99;56.39
28701;BME280;15877;52.344;16.790;2023-05-08T07:24:12;102112.83;;;13.06;56.90
28701;BME280;15877;52.344;16.790;2023-05-08T07:26:45;102122.66;;;13.25;56.39
28701;BME280;15877;52.344;16.790;2023-05-08T07:29:17;102126.93;;;13.36;56.24
28701;BME280;15877;52.344;16.790;2023-05-08T07:31:50;102127.38;;;13.41;56.05
28701;BME280;15877;52.344;16.790;2023-05-08T07:34:22;102127.96;;;13.42;55.22
28701;BME280;15877;52.344;16.790;2023-05-08T07:36:55;102128.81;;;13.54;56.06
28701;BME280;15877;52.344;16.790;2023-05-08T07:39:27;102130.93;;;13.56;55.33
28701;BME280;15877;52.344;16.790;2023-05-08T07:41:59;102131.66;;;13.67;55.14
28701;BME280;15877;52.344;16.790;2023-05-08T07:44:33;102128.98;;;13.83;55.15
28701;BME280;15877;52.344;16.790;2023-05-08T07:47:20;102130.39;;;13.89;55.63
28701;BME280;15877;52.344;16.790;2023-05-08T07:49:53;102126.34;;;13.92;54.75
28701;BME280;15877;52.344;16.790;2023-05-08T07:52:25;102124.63;;;14.00;55.55
28701;BME280;15877;52.344;16.790;2023-05-08T07:54:58;102126.10;;;14.05;55.03
28701;BME280;15877;52.344;16.790;2023-05-08T07:57:36;102121.54;;;14.00;53.23
28701;BME280;15877;52.344;16.790;2023-05-08T08:00:11;102129.69;;;13.98;53.73
28701;BME280;15877;52.344;16.790;2023-05-08T08:02:44;102127.91;;;14.18;52.71
28701;BME280;15877;52.344;16.790;2023-05-08T08:05:17;102126.56;;;14.27;52.20
28701;BME280;15877;52.344;16.790;2023-05-08T08:07:49;102122.71;;;14.22;50.84
28701;BME280;15877;52.344;16.790;2023-05-08T08:10:22;102118.74;;;14.35;52.85
28701;BME280;15877;52.344;16.790;2023-05-08T08:12:54;102124.38;;;14.42;51.74
28701;BME280;15877;52.344;16.790;2023-05-08T08:15:27;102109.52;;;14.43;49.23
28701;BME280;15877;52.344;16.790;2023-05-08T08:17:59;102122.55;;;14.41;48.39
28701;BME280;15877;52.344;16.790;2023-05-08T08:20:32;102116.73;;;14.60;48.22
28701;BME280;15877;52.344;16.790;2023-05-08T08:23:04;102122.73;;;14.58;48.94
28701;BME280;15877;52.344;16.790;2023-05-08T08:25:37;102118.79;;;14.67;50.36
28701;BME280;15877;52.344;16.790;2023-05-08T08:28:09;102110.98;;;14.66;51.00
28701;BME280;15877;52.344;16.790;2023-05-08T08:30:41;102122.56;;;14.80;51.44
28701;BME280;15877;52.344;16.790;2023-05-08T08:33:14;102121.64;;;14.92;48.86
28701;BME280;15877;52.344;16.790;2023-05-08T08:35:49;102118.03;;;14.92;47.91
28701;BME280;15877;52.344;16.790;2023-05-08T08:38:21;102113.16;;;14.94;48.10
28701;BME280;15877;52.344;16.790;2023-05-08T08:40:54;102113.11;;;15.03;48.75
28701;BME280;15877;52.344;16.790;2023-05-08T08:43:26;102109.34;;;15.02;49.18
28701;BME280;15877;52.344;16.790;2023-05-08T08:45:59;102117.05;;;15.19;49.21
28701;BME280;15877;52.344;16.790;2023-05-08T08:48:33;102116.31;;;15.16;49.68
28701;BME280;15877;52.344;16.790;2023-05-08T08:51:07;102117.65;;;15.23;49.37
28701;BME280;15877;52.344;16.790;2023-05-08T08:53:44;102115.33;;;15.28;49.73
28701;BME280;15877;52.344;16.790;2023-05-08T08:56:18;102110.75;;;15.43;50.05
28701;BME280;15877;52.344;16.790;2023-05-08T08:58:55;102113.83;;;15.50;48.53
28701;BME280;15877;52.344;16.790;2023-05-08T09:01:30;102111.71;;;15.57;46.71
28701;BME280;15877;52.344;16.790;2023-05-08T09:04:06;102117.30;;;15.59;47.70
28701;BME280;15877;52.344;16.790;2023-05-08T09:06:39;102110.81;;;15.65;48.52
28701;BME280;15877;52.344;16.790;2023-05-08T09:09:12;102109.66;;;15.81;49.06
28701;BME280;15877;52.344;16.790;2023-05-08T09:11:46;102103.71;;;15.89;49.07
28701;BME280;15877;52.344;16.790;2023-05-08T09:14:19;102109.00;;;15.92;47.92
28701;BME280;15877;52.344;16.790;2023-05-08T09:16:51;102109.61;;;16.00;47.05
28701;BME280;15877;52.344;16.790;2023-05-08T09:19:24;102109.25;;;16.11;45.92
28701;BME280;15877;52.344;16.790;2023-05-08T09:22:00;102106.96;;;16.21;45.15
28701;BME280;15877;52.344;16.790;2023-05-08T09:24:54;102106.55;;;16.23;46.15
28701;BME280;15877;52.344;16.790;2023-05-08T09:27:28;102100.50;;;16.19;45.31
28701;BME280;15877;52.344;16.790;2023-05-08T09:30:03;102098.23;;;16.25;44.07
28701;BME280;15877;52.344;16.790;2023-05-08T09:32:37;102094.05;;;16.39;45.02
28701;BME280;15877;52.344;16.790;2023-05-08T09:35:10;102094.15;;;16.55;46.52
28701;BME280;15877;52.344;16.790;2023-05-08T09:37:44;102091.45;;;16.60;44.36
28701;BME280;15877;52.344;16.790;2023-05-08T09:40:19;102087.34;;;16.66;45.25
28701;BME280;15877;52.344;16.790;2023-05-08T09:42:52;102082.38;;;16.73;43.62
28701;BME280;15877;52.344;16.790;2023-05-08T09:45:28;102086.45;;;16.82;43.60
28701;BME280;15877;52.344;16.790;2023-05-08T09:48:02;102085.74;;;16.66;42.70
28701;BME280;15877;52.344;16.790;2023-05-08T09:50:34;102084.83;;;16.61;42.68
28701;BME280;15877;52.344;16.790;2023-05-08T09:53:06;102089.77;;;16.70;43.11
28701;BME280;15877;52.344;16.790;2023-05-08T09:55:48;102092.27;;;16.81;42.59
28701;BME280;15877;52.344;16.790;2023-05-08T09:58:21;102085.35;;;16.87;43.19
28701;BME280;15877;52.344;16.790;2023-05-08T10:00:54;102085.45;;;16.88;43.39
28701;BME280;15877;52.344;16.790;2023-05-08T10:03:46;102079.41;;;17.15;42.96
28701;BME280;15877;52.344;16.790;2023-05-08T10:06:19;102075.19;;;17.10;44.88
28701;BME280;15877;52.344;16.790;2023-05-08T10:09:06;102075.02;;;17.25;43.73
28701;BME280;15877;52.344;16.790;2023-05-08T10:11:39;102081.34;;;17.39;42.80
28701;BME280;15877;52.344;16.790;2023-05-08T10:14:12;102070.65;;;17.46;42.47
28701;BME280;15877;52.344;16.790;2023-05-08T10:16:46;102068.98;;;17.50;43.04
28701;BME280;15877;52.344;16.790;2023-05-08T10:19:20;102073.77;;;17.56;42.29
28701;BME280;15877;52.344;16.790;2023-05-08T10:21:54;102071.85;;;17.69;43.77
28701;BME280;15877;52.344;16.790;2023-05-08T10:24:30;102073.94;;;17.70;45.28
28701;BME280;15877;52.344;16.790;2023-05-08T10:27:10;102076.06;;;17.84;43.29
28701;BME280;15877;52.344;16.790;2023-05-08T10:29:51;102074.52;;;17.95;42.64
28701;BME280;15877;52.344;16.790;2023-05-08T10:32:24;102057.36;;;17.94;44.33
28701;BME280;15877;52.344;16.790;2023-05-08T10:35:00;102070.30;;;17.98;42.37
28701;BME280;15877;52.344;16.790;2023-05-08T10:37:35;102063.17;;;18.09;42.17
28701;BME280;15877;52.344;16.790;2023-05-08T10:40:09;102061.17;;;18.01;42.04
28701;BME280;15877;52.344;16.790;2023-05-08T10:42:42;102058.25;;;18.07;42.21
28701;BME280;15877;52.344;16.790;2023-05-08T10:45:16;102053.77;;;18.28;42.99
28701;BME280;15877;52.344;16.790;2023-05-08T10:47:58;102056.19;;;18.37;42.11
28701;BME280;15877;52.344;16.790;2023-05-08T10:50:43;102052.69;;;18.44;41.59
28701;BME280;15877;52.344;16.790;2023-05-08T10:53:33;102051.84;;;18.56;42.81
28701;BME280;15877;52.344;16.790;2023-05-08T10:56:07;102051.31;;;18.64;41.65
28701;BME280;15877;52.344;16.790;2023-05-08T10:58:40;102044.88;;;18.76;43.65
28701;BME280;15877;52.344;16.790;2023-05-08T11:01:14;102044.24;;;18.82;43.71
28701;BME280;15877;52.344;16.790;2023-05-08T11:03:50;102043.35;;;18.98;42.40
28701;BME280;15877;52.344;16.790;2023-05-08T11:06:45;102045.52;;;19.10;41.57
28701;BME280;15877;52.344;16.790;2023-05-08T11:09:26;102039.75;;;19.18;41.94
28701;BME280;15877;52.344;16.790;2023-05-08T11:12:07;102029.65;;;19.27;43.61
28701;BME280;15877;52.344;16.790;2023-05-08T11:14:59;102033.28;;;19.22;42.95
28701;BME280;15877;52.344;16.790;2023-05-08T11:17:31;102029.92;;;19.36;40.94
28701;BME280;15877;52.344;16.790;2023-05-08T11:20:05;102026.17;;;19.54;41.15
28701;BME280;15877;52.344;16.790;2023-05-08T11:22:38;102025.13;;;19.61;40.63
28701;BME280;15877;52.344;16.790;2023-05-08T11:25:18;102019.73;;;19.70;40.54
28701;BME280;15877;52.344;16.790;2023-05-08T11:28:16;102021.54;;;19.81;41.74
28701;BME280;15877;52.344;16.790;2023-05-08T11:30:53;102014.80;;;19.86;40.14
28701;BME280;15877;52.344;16.790;2023-05-08T11:33:36;102013.69;;;19.95;40.10
28701;BME280;15877;52.344;16.790;2023-05-08T11:36:15;102015.57;;;19.90;39.36
28701;BME280;15877;52.344;16.790;2023-05-08T11:39:07;102013.78;;;19.88;39.31
28701;BME280;15877;52.344;16.790;2023-05-08T11:41:42;102008.61;;;19.94;39.61
28701;BME280;15877;52.344;16.790;2023-05-08T11:44:21;102004.80;;;20.02;39.59
28701;BME280;15877;52.344;16.790;2023-05-08T11:46:54;102005.09;;;20.07;38.86
28701;BME280;15877;52.344;16.790;2023-05-08T11:49:28;102003.42;;;20.03;38.44
28701;BME280;15877;52.344;16.790;2023-05-08T11:52:00;102004.91;;;20.07;37.29
28701;BME280;15877;52.344;16.790;2023-05-08T11:54:36;101998.30;;;20.14;38.76
28701;BME280;15877;52.344;16.790;2023-05-08T11:57:08;102003.58;;;20.18;39.56
28701;BME280;15877;52.344;16.790;2023-05-08T11:59:41;102000.21;;;20.31;39.66
28701;BME280;15877;52.344;16.790;2023-05-08T12:02:13;102006.66;;;20.30;38.82
28701;BME280;15877;52.344;16.790;2023-05-08T12:04:47;102002.86;;;20.42;38.30
28701;BME280;15877;52.344;16.790;2023-05-08T12:07:19;102003.35;;;20.22;37.61
28701;BME280;15877;52.344;16.790;2023-05-08T12:09:52;101993.19;;;20.11;37.18
28701;BME280;15877;52.344;16.790;2023-05-08T12:12:24;101981.48;;;20.17;37.28
28701;BME280;15877;52.344;16.790;2023-05-08T12:15:11;101992.54;;;20.10;38.41
28701;BME280;15877;52.344;16.790;2023-05-08T12:17:44;101994.69;;;20.24;38.66
28701;BME280;15877;52.344;16.790;2023-05-08T12:20:18;102003.68;;;20.32;37.24
28701;BME280;15877;52.344;16.790;2023-05-08T12:22:51;101999.13;;;20.26;37.26
28701;BME280;15877;52.344;16.790;2023-05-08T12:25:26;101985.00;;;20.25;37.04
28701;BME280;15877;52.344;16.790;2023-05-08T12:27:58;101987.13;;;20.40;36.91
28701;BME280;15877;52.344;16.790;2023-05-08T12:30:31;101990.48;;;20.36;37.48
28701;BME280;15877;52.344;16.790;2023-05-08T12:33:04;101992.56;;;20.20;36.32
28701;BME280;15877;52.344;16.790;2023-05-08T12:35:37;101989.51;;;20.23;37.47
28701;BME280;15877;52.344;16.790;2023-05-08T12:38:10;101977.40;;;20.11;36.66
28701;BME280;15877;52.344;16.790;2023-05-08T12:40:43;101986.15;;;20.28;37.49
28701;BME280;15877;52.344;16.790;2023-05-08T12:43:16;101976.93;;;20.37;38.92
28701;BME280;15877;52.344;16.790;2023-05-08T12:45:51;101982.66;;;20.35;37.47
28701;BME280;15877;52.344;16.790;2023-05-08T12:48:23;101958.24;;;20.38;39.17
28701;BME280;15877;52.344;16.790;2023-05-08T12:50:59;101976.59;;;20.56;37.56
28701;BME280;15877;52.344;16.790;2023-05-08T12:53:32;101983.85;;;20.46;36.96
28701;BME280;15877;52.344;16.790;2023-05-08T12:56:06;101978.55;;;20.48;36.27
28701;BME280;15877;52.344;16.790;2023-05-08T12:58:41;101973.34;;;20.54;36.45
28701;BME280;15877;52.344;16.790;2023-05-08T13:01:13;101972.57;;;20.60;36.85
28701;BME280;15877;52.344;16.790;2023-05-08T13:03:52;101965.64;;;20.64;36.78
28701;BME280;15877;52.344;16.790;2023-05-08T13:06:33;101962.94;;;20.71;36.66
28701;BME280;15877;52.344;16.790;2023-05-08T13:09:05;101962.94;;;20.71;36.40
28701;BME280;15877;52.344;16.790;2023-05-08T13:11:38;101965.95;;;20.77;36.83
28701;BME280;15877;52.344;16.790;2023-05-08T13:14:10;101959.80;;;20.88;37.18
28701;BME280;15877;52.344;16.790;2023-05-08T13:16:45;101953.38;;;20.97;38.11
28701;BME280;15877;52.344;16.790;2023-05-08T13:19:18;101949.33;;;21.11;38.85
28701;BME280;15877;52.344;16.790;2023-05-08T13:21:50;101942.45;;;21.09;35.90
28701;BME280;15877;52.344;16.790;2023-05-08T13:24:23;101943.02;;;21.07;35.41